createdAt,value
2022-07-31T00:00:19.270Z,0.80
2022-07-31T00:02:46.964Z,0.70
2022-07-31T00:05:14.270Z,0.77
2022-07-31T00:07:41.297Z,0.63
2022-07-31T00:10:09.170Z,0.50
2022-07-31T00:12:36.088Z,0.50
2022-07-31T00:15:07.666Z,0.60
2022-07-31T00:17:34.536Z,0.63
2022-07-31T00:20:02.294Z,0.60
2022-07-31T00:22:29.337Z,0.60
2022-07-31T00:24:56.571Z,1.33
2022-07-31T00:27:23.773Z,0.80
2022-07-31T00:29:52.442Z,1.90
2022-07-31T00:32:19.335Z,1.25
2022-07-31T00:34:46.208Z,1.23
2022-07-31T00:37:13.126Z,1.58
2022-07-31T00:39:40.100Z,1.10
2022-07-31T00:42:20.506Z,0.80
2022-07-31T00:44:48.520Z,0.60
2022-07-31T00:47:16.704Z,1.08
2022-07-31T00:49:45.174Z,0.82
2022-07-31T00:52:12.789Z,2.05
2022-07-31T00:54:40.037Z,1.05
2022-07-31T00:57:07.463Z,1.02
2022-07-31T00:59:34.554Z,0.77
2022-07-31T01:02:02.259Z,0.80
2022-07-31T01:04:31.328Z,1.00
2022-07-31T01:06:59.520Z,0.50
2022-07-31T01:09:26.915Z,0.43
2022-07-31T01:12:18.784Z,0.40
2022-07-31T01:14:56.072Z,0.60
2022-07-31T01:17:25.042Z,0.60
2022-07-31T01:19:53.158Z,0.88
2022-07-31T01:22:56.762Z,0.70
2022-07-31T01:25:45.277Z,1.23
2022-07-31T01:28:41.176Z,0.60
2022-07-31T01:31:26.191Z,1.05
2022-07-31T01:34:06.812Z,0.65
2022-07-31T01:36:37.068Z,0.52
2022-07-31T01:39:04.891Z,0.70
2022-07-31T01:41:38.014Z,1.50
2022-07-31T01:44:07.915Z,0.75
2022-07-31T01:46:43.755Z,1.38
2022-07-31T01:49:12.151Z,0.75
2022-07-31T01:51:41.842Z,0.60
2022-07-31T01:54:10.487Z,0.68
2022-07-31T01:56:39.139Z,0.47
2022-07-31T01:59:20.596Z,0.60
2022-07-31T02:01:51.449Z,0.38
2022-07-31T02:04:20.397Z,0.50
2022-07-31T02:06:49.919Z,0.60
2022-07-31T02:09:19.592Z,0.50
2022-07-31T02:11:53.442Z,1.02
2022-07-31T02:14:22.813Z,0.50
2022-07-31T02:16:50.417Z,0.82
2022-07-31T02:19:17.777Z,0.98
2022-07-31T02:21:44.666Z,0.85
2022-07-31T02:24:11.660Z,1.77
2022-07-31T02:26:40.558Z,1.20
2022-07-31T02:29:19.638Z,1.70
2022-07-31T02:32:01.790Z,1.17
2022-07-31T02:34:32.617Z,1.90
2022-07-31T02:37:02.249Z,1.55
2022-07-31T02:39:31.302Z,0.85
2022-07-31T02:42:01.396Z,0.60
2022-07-31T02:44:31.883Z,0.50
2022-07-31T02:47:02.592Z,0.50
2022-07-31T02:49:30.750Z,0.77
2022-07-31T02:51:58.530Z,0.60
2022-07-31T02:54:26.097Z,0.50
2022-07-31T02:56:53.648Z,0.40
2022-07-31T02:59:22.187Z,1.10
2022-07-31T03:01:48.979Z,1.02
2022-07-31T03:04:15.841Z,2.17
2022-07-31T03:06:43.464Z,0.80
2022-07-31T03:09:10.313Z,0.80
2022-07-31T03:11:37.308Z,0.90
2022-07-31T03:14:05.504Z,0.77
2022-07-31T03:16:34.119Z,0.88
2022-07-31T03:19:03.327Z,0.80
2022-07-31T03:21:31.277Z,1.33
2022-07-31T03:23:59.754Z,1.33
2022-07-31T03:26:27.183Z,1.73
2022-07-31T03:28:54.138Z,0.93
2022-07-31T03:31:21.979Z,1.00
2022-07-31T03:33:48.738Z,1.30
2022-07-31T03:36:15.641Z,1.45
2022-07-31T03:38:45.500Z,0.75
2022-07-31T03:41:14.633Z,0.80
2022-07-31T03:43:47.974Z,1.25
2022-07-31T03:46:21.213Z,0.65
2022-07-31T03:48:48.530Z,0.80
2022-07-31T03:51:15.854Z,0.40
2022-07-31T03:53:43.654Z,0.45
2022-07-31T03:56:11.546Z,0.57
2022-07-31T03:58:38.900Z,0.57
2022-07-31T04:01:10.344Z,0.50
2022-07-31T04:03:38.522Z,0.38
2022-07-31T04:06:05.350Z,0.55
2022-07-31T04:08:33.230Z,0.70
2022-07-31T04:11:00.032Z,0.68
2022-07-31T04:13:26.869Z,0.98
2022-07-31T04:15:54.186Z,0.77
2022-07-31T04:18:20.996Z,0.40
2022-07-31T04:20:47.821Z,0.60
2022-07-31T04:23:14.709Z,0.47
2022-07-31T04:25:41.511Z,0.30
2022-07-31T04:28:08.515Z,0.40
2022-07-31T04:30:35.338Z,0.40
2022-07-31T04:33:02.250Z,0.35
2022-07-31T04:35:29.051Z,0.63
2022-07-31T04:37:55.880Z,0.40
2022-07-31T04:40:22.986Z,0.40
2022-07-31T04:42:50.113Z,0.30
2022-07-31T04:45:16.976Z,0.63
2022-07-31T04:47:43.812Z,0.40
2022-07-31T04:50:10.899Z,0.40
2022-07-31T04:52:37.876Z,0.30
2022-07-31T04:55:05.088Z,0.30
2022-07-31T04:57:31.883Z,0.30
2022-07-31T05:00:00.811Z,0.40
2022-07-31T05:02:28.449Z,0.45
2022-07-31T05:04:57.242Z,0.30
2022-07-31T05:07:25.902Z,0.20
2022-07-31T05:09:56.397Z,0.30
2022-07-31T05:12:23.282Z,0.30
2022-07-31T05:14:50.057Z,0.30
2022-07-31T05:17:17.362Z,0.30
2022-07-31T05:19:44.182Z,0.22
2022-07-31T05:22:11.611Z,0.30
2022-07-31T05:24:40.313Z,0.30
2022-07-31T05:27:07.507Z,0.30
2022-07-31T05:29:34.731Z,0.30
2022-07-31T05:32:02.204Z,0.30
2022-07-31T05:34:30.680Z,0.40
2022-07-31T05:37:01.351Z,0.50
2022-07-31T05:39:29.455Z,0.50
2022-07-31T05:41:56.434Z,0.47
2022-07-31T05:44:23.710Z,0.65
2022-07-31T05:49:19.816Z,0.50
2022-07-31T05:51:46.938Z,0.40
2022-07-31T05:54:14.532Z,0.50
2022-07-31T05:56:41.403Z,0.38
2022-07-31T05:59:09.711Z,0.40
2022-07-31T06:01:37.271Z,0.80
2022-07-31T06:04:04.283Z,0.40
2022-07-31T06:06:31.170Z,0.43
2022-07-31T06:09:03.558Z,0.30
2022-07-31T06:11:30.990Z,0.35
2022-07-31T06:13:58.391Z,0.38
2022-07-31T06:16:25.237Z,0.30
2022-07-31T06:18:52.586Z,0.30
2022-07-31T06:23:45.287Z,0.47
2022-07-31T06:26:12.592Z,0.40
2022-07-31T06:28:48.127Z,0.40
2022-07-31T06:31:25.281Z,0.30
2022-07-31T06:33:52.784Z,0.35
2022-07-31T06:36:20.155Z,0.90
2022-07-31T06:38:47.270Z,0.50
2022-07-31T06:41:32.805Z,0.30
2022-07-31T06:43:59.770Z,0.30
2022-07-31T06:46:26.643Z,0.30
2022-07-31T06:48:53.764Z,0.50
2022-07-31T06:51:30.882Z,0.40
2022-07-31T06:54:03.942Z,0.30
2022-07-31T06:56:31.289Z,0.30
2022-07-31T06:58:58.318Z,0.40
2022-07-31T07:01:25.380Z,0.50
2022-07-31T07:03:52.327Z,0.35
2022-07-31T07:06:19.324Z,0.50
2022-07-31T07:08:46.117Z,0.50
2022-07-31T07:11:13.489Z,0.70
2022-07-31T07:13:45.284Z,0.50
2022-07-31T07:16:14.709Z,0.65
2022-07-31T07:18:43.236Z,0.70
2022-07-31T07:21:10.548Z,0.80
2022-07-31T07:23:37.426Z,0.80
2022-07-31T07:26:04.984Z,1.58
2022-07-31T07:28:32.004Z,1.05
2022-07-31T07:30:59.430Z,1.10
2022-07-31T07:33:40.999Z,0.98
2022-07-31T07:36:08.993Z,1.00
2022-07-31T07:38:50.797Z,1.10
2022-07-31T07:41:18.712Z,2.00
2022-07-31T07:43:51.771Z,1.25
2022-07-31T07:46:20.443Z,1.10
2022-07-31T07:48:47.413Z,1.17
2022-07-31T07:51:14.333Z,1.30
2022-07-31T07:53:41.201Z,1.20
2022-07-31T07:56:08.007Z,1.70
2022-07-31T07:58:34.880Z,1.48
2022-07-31T08:01:01.925Z,1.45
2022-07-31T08:03:48.854Z,1.10
2022-07-31T08:06:17.071Z,1.20
2022-07-31T08:08:44.052Z,1.10
2022-07-31T08:11:11.046Z,1.10
2022-07-31T08:13:49.702Z,1.38
2022-07-31T08:16:18.639Z,2.42
2022-07-31T08:18:45.596Z,2.25
2022-07-31T08:21:12.510Z,1.33
2022-07-31T08:23:39.305Z,2.92
2022-07-31T08:26:08.747Z,1.45
2022-07-31T08:28:36.527Z,1.30
2022-07-31T08:31:03.906Z,2.13
2022-07-31T08:33:32.974Z,1.40
2022-07-31T08:36:00.940Z,1.08
2022-07-31T08:38:28.754Z,1.95
2022-07-31T08:40:55.741Z,1.52
2022-07-31T08:44:01.648Z,1.23
2022-07-31T08:46:10.645Z,1.20
2022-07-31T08:48:40.553Z,1.45
2022-07-31T08:51:10.557Z,2.08
2022-07-31T08:53:38.985Z,0.93
2022-07-31T08:56:06.483Z,1.17
2022-07-31T08:58:38.705Z,1.80
2022-07-31T09:01:06.850Z,2.80
2022-07-31T09:03:35.330Z,1.00
2022-07-31T09:06:02.333Z,1.27
2022-07-31T09:08:36.229Z,2.28
2022-07-31T09:11:08.144Z,1.83
2022-07-31T09:13:35.165Z,1.63
2022-07-31T09:16:02.965Z,0.90
2022-07-31T09:18:30.396Z,1.27
2022-07-31T09:21:02.885Z,1.00
2022-07-31T09:23:32.246Z,1.08
2022-07-31T09:26:00.181Z,0.95
2022-07-31T09:28:33.695Z,0.70
2022-07-31T09:31:00.975Z,0.85
2022-07-31T09:33:30.336Z,1.08
2022-07-31T09:35:58.255Z,1.20
2022-07-31T09:38:40.007Z,0.95
2022-07-31T09:41:56.689Z,1.10
2022-07-31T09:44:11.114Z,1.48
2022-07-31T09:46:48.355Z,1.45
2022-07-31T09:49:15.802Z,2.53
2022-07-31T09:51:44.717Z,1.38
2022-07-31T09:54:22.161Z,1.83
2022-07-31T09:56:50.313Z,1.00
2022-07-31T09:59:17.930Z,1.30
2022-07-31T10:01:49.029Z,1.63
2022-07-31T10:04:18.588Z,1.30
2022-07-31T10:06:50.784Z,1.02
2022-07-31T10:09:20.277Z,1.52
2022-07-31T10:11:48.718Z,2.03
2022-07-31T10:14:22.544Z,1.20
2022-07-31T10:16:54.525Z,1.20
2022-07-31T10:19:22.582Z,1.38
2022-07-31T10:21:57.222Z,2.05
2022-07-31T10:24:29.924Z,1.90
2022-07-31T10:27:10.781Z,2.33
2022-07-31T10:29:40.896Z,1.30
2022-07-31T10:32:09.038Z,2.05
2022-07-31T10:34:36.543Z,2.20
2022-07-31T10:37:11.429Z,1.25
2022-07-31T10:39:48.745Z,1.48
2022-07-31T10:42:41.403Z,1.50
2022-07-31T10:45:11.475Z,1.30
2022-07-31T10:47:38.524Z,1.02
2022-07-31T10:50:06.181Z,1.30
2022-07-31T10:52:37.124Z,2.00
2022-07-31T10:55:27.582Z,1.52
2022-07-31T10:57:56.726Z,2.13
2022-07-31T11:00:28.315Z,1.23
2022-07-31T11:02:57.111Z,0.90
2022-07-31T11:05:26.074Z,1.05
2022-07-31T11:08:04.131Z,1.67
2022-07-31T11:10:31.922Z,1.85
2022-07-31T11:13:07.583Z,0.88
2022-07-31T11:15:35.083Z,1.02
2022-07-31T11:18:27.564Z,1.77
2022-07-31T11:21:35.808Z,1.38
2022-07-31T11:23:57.720Z,1.08
2022-07-31T11:26:32.804Z,2.05
2022-07-31T11:30:00.870Z,1.30
2022-07-31T11:31:55.474Z,1.02
2022-07-31T11:34:22.385Z,1.60
2022-07-31T11:36:51.660Z,1.25
2022-07-31T11:39:18.804Z,1.73
2022-07-31T11:41:55.361Z,1.73
2022-07-31T11:44:22.613Z,1.38
2022-07-31T11:46:51.279Z,1.75
2022-07-31T11:49:44.143Z,0.95
2022-07-31T11:52:31.001Z,1.40
2022-07-31T11:55:09.638Z,1.40
2022-07-31T11:57:52.331Z,1.67
2022-07-31T12:00:26.635Z,1.30
2022-07-31T12:02:57.421Z,1.70
2022-07-31T12:05:39.148Z,1.40
2022-07-31T12:08:07.736Z,1.02
2022-07-31T12:10:35.080Z,1.30
2022-07-31T12:13:02.837Z,1.40
2022-07-31T12:15:30.202Z,1.65
2022-07-31T12:18:03.043Z,1.20
2022-07-31T12:20:35.953Z,1.27
2022-07-31T12:23:05.260Z,1.55
2022-07-31T12:25:42.908Z,1.67
2022-07-31T12:28:10.222Z,1.30
2022-07-31T12:30:37.354Z,2.55
2022-07-31T12:33:09.103Z,1.67
2022-07-31T12:35:56.163Z,2.30
2022-07-31T12:38:45.406Z,1.40
2022-07-31T12:41:14.597Z,1.70
2022-07-31T12:43:50.098Z,3.70
2022-07-31T12:46:33.707Z,1.58
2022-07-31T12:49:01.005Z,2.08
2022-07-31T12:51:46.342Z,1.33
2022-07-31T12:54:15.860Z,1.38
2022-07-31T12:56:43.289Z,1.23
2022-07-31T12:59:11.035Z,1.65
2022-07-31T13:01:38.147Z,1.20
2022-07-31T13:04:07.854Z,1.17
2022-07-31T13:06:45.605Z,2.13
2022-07-31T13:09:12.518Z,1.35
2022-07-31T13:11:46.278Z,1.20
2022-07-31T13:14:19.341Z,1.05
2022-07-31T13:16:47.738Z,1.95
2022-07-31T13:19:15.051Z,1.58
2022-07-31T13:21:49.557Z,1.33
2022-07-31T13:24:17.669Z,1.52
2022-07-31T13:26:45.565Z,1.20
2022-07-31T13:29:13.382Z,1.55
2022-07-31T13:31:40.362Z,1.10
2022-07-31T13:34:07.565Z,1.50
2022-07-31T13:36:38.880Z,1.10
2022-07-31T13:39:07.237Z,0.95
2022-07-31T13:41:35.841Z,1.05
2022-07-31T13:44:04.182Z,1.77
2022-07-31T13:46:31.856Z,1.20
2022-07-31T13:48:59.648Z,1.30
2022-07-31T13:51:30.022Z,1.30
2022-07-31T13:53:56.944Z,1.02
2022-07-31T13:56:39.726Z,1.15
2022-07-31T13:59:11.280Z,0.93
2022-07-31T14:02:05.158Z,0.98
2022-07-31T14:04:26.162Z,1.10
2022-07-31T14:06:58.070Z,1.42
2022-07-31T14:09:25.065Z,1.23
2022-07-31T14:11:51.890Z,1.17
2022-07-31T14:14:22.376Z,1.63
2022-07-31T14:16:50.705Z,0.98
2022-07-31T14:19:17.747Z,1.35
2022-07-31T14:21:56.081Z,0.80
2022-07-31T14:24:25.274Z,0.90
2022-07-31T14:26:52.394Z,0.95
2022-07-31T14:29:19.279Z,1.60
2022-07-31T14:31:46.224Z,1.42
2022-07-31T14:34:13.045Z,1.30
2022-07-31T14:36:40.138Z,1.20
2022-07-31T14:39:07.125Z,1.38
2022-07-31T14:41:34.233Z,0.98
2022-07-31T14:44:01.170Z,0.77
2022-07-31T14:46:28.055Z,1.10
2022-07-31T14:48:54.917Z,1.05
2022-07-31T14:51:22.022Z,1.15
2022-07-31T14:53:49.173Z,0.95
2022-07-31T14:56:27.238Z,1.23
2022-07-31T14:59:02.230Z,1.10
2022-07-31T15:01:30.751Z,0.82
2022-07-31T15:03:58.455Z,0.90
2022-07-31T15:06:41.901Z,0.80
2022-07-31T15:09:12.637Z,0.82
2022-07-31T15:11:59.043Z,0.70
2022-07-31T15:14:29.576Z,0.88
2022-07-31T15:16:56.711Z,0.88
2022-07-31T15:19:23.642Z,1.38
2022-07-31T15:22:10.345Z,0.90
2022-07-31T15:24:40.111Z,1.05
2022-07-31T15:27:09.377Z,1.20
2022-07-31T15:30:04.049Z,0.80
2022-07-31T15:32:23.612Z,1.00
2022-07-31T15:34:51.133Z,1.13
2022-07-31T15:37:20.112Z,2.13
2022-07-31T15:40:02.638Z,1.63
2022-07-31T15:42:32.153Z,1.20
2022-07-31T15:44:59.290Z,0.85
2022-07-31T15:47:26.318Z,1.65
2022-07-31T15:49:53.176Z,1.15
2022-07-31T15:52:20.147Z,1.10
2022-07-31T15:54:51.877Z,1.25
2022-07-31T15:57:19.888Z,1.00
2022-07-31T15:59:46.850Z,0.80
2022-07-31T16:02:13.652Z,1.00
2022-07-31T16:04:53.791Z,0.77
2022-07-31T16:08:30.365Z,0.77
2022-07-31T16:10:17.638Z,0.95
2022-07-31T16:12:45.782Z,0.93
2022-07-31T16:15:13.396Z,0.95
2022-07-31T16:17:40.792Z,0.88
2022-07-31T16:20:25.283Z,1.50
2022-07-31T16:23:03.602Z,0.80
2022-07-31T16:25:34.564Z,1.10
2022-07-31T16:28:03.255Z,1.15
2022-07-31T16:30:30.590Z,1.50
2022-07-31T16:32:58.310Z,1.00
2022-07-31T16:35:26.401Z,0.93
2022-07-31T16:37:54.217Z,0.85
2022-07-31T16:40:30.861Z,1.00
2022-07-31T16:43:49.404Z,1.00
2022-07-31T16:45:54.500Z,0.73
2022-07-31T16:48:21.797Z,0.60
2022-07-31T16:50:53.448Z,1.35
2022-07-31T16:54:12.100Z,1.33
2022-07-31T16:56:14.789Z,0.82
2022-07-31T16:58:42.284Z,0.63
2022-07-31T17:01:59.578Z,0.98
2022-07-31T17:04:00.895Z,1.15
2022-07-31T17:06:37.741Z,1.42
2022-07-31T17:09:17.310Z,0.82
2022-07-31T17:11:55.955Z,0.80
2022-07-31T17:14:25.867Z,0.80
2022-07-31T17:16:54.233Z,0.63
2022-07-31T17:19:42.630Z,0.60
2022-07-31T17:22:18.058Z,0.65
2022-07-31T17:24:51.418Z,0.70
2022-07-31T17:27:20.336Z,0.70
2022-07-31T17:29:49.316Z,0.70
2022-07-31T17:32:17.879Z,1.25
2022-07-31T17:34:46.429Z,0.60
2022-07-31T17:37:13.849Z,1.00
2022-07-31T17:39:41.024Z,0.80
2022-07-31T17:42:09.318Z,1.05
2022-07-31T17:44:39.910Z,2.05
2022-07-31T17:47:08.421Z,1.58
2022-07-31T17:49:36.725Z,1.17
2022-07-31T17:52:04.276Z,1.00
2022-07-31T17:54:32.716Z,1.00
2022-07-31T17:57:00.139Z,0.75
2022-07-31T17:59:28.072Z,0.80
2022-07-31T18:02:00.567Z,1.23
2022-07-31T18:04:37.915Z,1.45
2022-07-31T18:07:06.824Z,1.67
2022-07-31T18:09:35.306Z,0.80
2022-07-31T18:12:02.749Z,1.08
2022-07-31T18:14:29.900Z,1.27
2022-07-31T18:16:57.496Z,0.98
2022-07-31T18:19:24.546Z,1.17
2022-07-31T18:21:52.338Z,0.98
2022-07-31T18:24:20.648Z,1.00
2022-07-31T18:26:48.028Z,0.82
2022-07-31T18:29:17.124Z,3.03
2022-07-31T18:31:44.839Z,1.45
2022-07-31T18:34:12.138Z,1.00
2022-07-31T18:36:40.239Z,1.00
2022-07-31T18:39:08.023Z,1.02
2022-07-31T18:41:35.185Z,1.30
2022-07-31T18:44:02.343Z,1.17
2022-07-31T18:46:29.503Z,1.02
2022-07-31T18:48:56.923Z,0.93
2022-07-31T18:51:28.016Z,0.80
2022-07-31T18:53:55.625Z,1.17
2022-07-31T18:56:24.014Z,0.93
2022-07-31T18:58:52.321Z,1.55
2022-07-31T19:01:20.027Z,0.80
2022-07-31T19:03:47.543Z,0.77
2022-07-31T19:06:14.919Z,0.80
2022-07-31T19:08:42.115Z,0.50
2022-07-31T19:11:09.040Z,0.60
2022-07-31T19:13:36.129Z,0.40
2022-07-31T19:16:03.153Z,0.47
2022-07-31T19:18:30.071Z,1.23
2022-07-31T19:21:19.065Z,0.95
2022-07-31T19:23:44.772Z,0.70
2022-07-31T19:26:11.834Z,1.25
2022-07-31T19:28:40.094Z,0.73
2022-07-31T19:31:07.453Z,1.02
2022-07-31T19:33:34.893Z,0.70
2022-07-31T19:36:03.033Z,0.70
2022-07-31T19:38:31.860Z,0.80
2022-07-31T19:40:59.113Z,1.05
2022-07-31T19:43:26.054Z,0.98
2022-07-31T19:45:58.817Z,0.70
2022-07-31T19:48:39.729Z,0.75
2022-07-31T19:51:06.636Z,0.90
2022-07-31T19:53:33.706Z,0.73
2022-07-31T19:56:05.486Z,0.60
2022-07-31T19:58:36.411Z,0.50
2022-07-31T20:01:05.185Z,0.60
2022-07-31T20:03:32.677Z,0.40
2022-07-31T20:05:59.865Z,0.38
2022-07-31T20:08:28.132Z,0.40
2022-07-31T20:11:03.133Z,0.40
2022-07-31T20:13:31.600Z,0.50
2022-07-31T20:15:59.339Z,0.52
2022-07-31T20:18:30.864Z,0.88
2022-07-31T20:21:08.196Z,0.40
2022-07-31T20:23:38.791Z,0.60
2022-07-31T20:26:10.955Z,0.50
2022-07-31T20:28:40.488Z,0.47
2022-07-31T20:31:16.208Z,0.40
2022-07-31T20:33:56.795Z,0.60
2022-07-31T20:36:24.844Z,0.50
2022-07-31T20:38:51.885Z,0.57
2022-07-31T20:41:18.707Z,0.60
2022-07-31T20:43:45.664Z,0.73
2022-07-31T20:46:12.919Z,0.35
2022-07-31T20:48:39.867Z,0.60
2022-07-31T20:51:09.500Z,0.40
2022-07-31T20:53:36.693Z,0.40
2022-07-31T20:56:03.681Z,0.73
2022-07-31T20:58:30.682Z,0.60
2022-07-31T21:00:57.723Z,0.50
2022-07-31T21:03:25.163Z,0.55
2022-07-31T21:05:52.185Z,0.90
2022-07-31T21:08:19.266Z,0.63
2022-07-31T21:10:46.470Z,0.60
2022-07-31T21:13:13.422Z,0.50
2022-07-31T21:15:44.810Z,0.50
2022-07-31T21:18:17.187Z,0.50
2022-07-31T21:20:50.838Z,0.40
2022-07-31T21:23:26.799Z,0.40
2022-07-31T21:25:56.378Z,0.30
2022-07-31T21:28:25.486Z,0.40
2022-07-31T21:30:56.557Z,0.40
2022-07-31T21:33:27.922Z,0.40
2022-07-31T21:35:55.697Z,0.45
2022-07-31T21:38:23.074Z,0.40
2022-07-31T21:40:50.489Z,0.50
2022-07-31T21:43:22.352Z,0.25
2022-07-31T21:45:57.709Z,0.35
2022-07-31T21:48:29.925Z,0.30
2022-07-31T21:50:57.126Z,0.25
2022-07-31T21:53:25.020Z,0.50
2022-07-31T21:55:52.474Z,0.55
2022-07-31T21:58:19.784Z,0.80
2022-07-31T22:00:47.299Z,1.15
2022-07-31T22:03:14.354Z,0.70
2022-07-31T22:05:59.832Z,0.70
2022-07-31T22:08:27.005Z,1.10
2022-07-31T22:10:54.615Z,1.30
2022-07-31T22:13:21.767Z,1.27
2022-07-31T22:15:58.314Z,1.20
2022-07-31T22:18:29.037Z,1.02
2022-07-31T22:20:56.801Z,1.25
2022-07-31T22:23:24.181Z,1.30
2022-07-31T22:25:51.270Z,0.93
2022-07-31T22:28:20.763Z,0.95
2022-07-31T22:30:48.423Z,1.05
2022-07-31T22:33:15.576Z,1.08
2022-07-31T22:35:42.949Z,1.00
2022-07-31T22:38:11.693Z,0.98
2022-07-31T22:40:38.980Z,1.55
2022-07-31T22:44:05.527Z,0.70
2022-07-31T22:45:54.617Z,0.88
2022-07-31T22:48:25.097Z,1.08
2022-07-31T22:50:52.085Z,0.63
2022-07-31T22:53:19.051Z,1.77
2022-07-31T22:55:46.205Z,1.83
2022-07-31T22:58:15.359Z,0.60
2022-07-31T23:00:42.810Z,0.50
2022-07-31T23:03:09.668Z,0.88
2022-07-31T23:06:12.249Z,0.77
2022-07-31T23:08:23.526Z,0.50
2022-07-31T23:10:50.770Z,0.90
2022-07-31T23:13:17.909Z,0.40
2022-07-31T23:15:45.111Z,0.75
2022-07-31T23:18:12.080Z,0.93
2022-07-31T23:20:39.046Z,0.50
2022-07-31T23:23:06.115Z,0.70
2022-07-31T23:25:33.537Z,0.45
2022-07-31T23:28:00.628Z,0.52
2022-07-31T23:30:27.765Z,0.57
2022-07-31T23:32:55.674Z,0.55
2022-07-31T23:35:22.617Z,0.52
2022-07-31T23:37:50.600Z,1.98
2022-07-31T23:40:17.531Z,0.47
2022-07-31T23:42:44.412Z,0.40
2022-07-31T23:45:15.714Z,0.35
2022-07-31T23:47:45.838Z,0.68
2022-07-31T23:50:14.413Z,0.70
2022-07-31T23:52:42.002Z,0.63
2022-07-31T23:55:09.418Z,0.47
2022-07-31T23:57:36.635Z,0.52
